Terminal Aerodrome Forecast
Issued by NWS Norman, OK

Home | Current Version | Previous Version | Text Only | Print | Product List | Glossary On
Versions: 1 2 3 4 5 6 7 8 9 10 11 12 13 14 15 16 17 18 19 20 21 22 23 24 25 26 27 28 29 30 31 32 33 34 35 36 37 38
000
FTUS44 KOUN 231733
TAFOKC
TAF
KOKC 231733Z 2318/2418 24016G25KT P6SM BKN025
     FM232000 32026G36KT P6SM BKN040
     FM232200 32028G38KT P6SM VCSH OVC040
     FM240100 31019G25KT P6SM BKN100
     FM240400 29013KT P6SM FEW180
     FM241600 29016G22KT P6SM SKC=

USA.gov is the U.S. government's official web portal to all federal, state and local government web resources and services.